createdAt,value
2019-01-02T00:05:01.026Z,3.80
2019-01-02T00:07:30.837Z,3.80
2019-01-02T00:10:00.241Z,3.80
2019-01-02T00:12:29.695Z,3.70
2019-01-02T00:14:59.248Z,3.70
2019-01-02T00:17:28.571Z,3.80
2019-01-02T00:19:58.240Z,3.70
2019-01-02T00:22:27.608Z,3.70
2019-01-02T00:24:57.396Z,3.00
2019-01-02T00:27:26.958Z,2.80
2019-01-02T00:29:56.744Z,2.70
2019-01-02T00:32:26.170Z,2.60
2019-01-02T00:34:55.589Z,2.50
2019-01-02T00:37:24.820Z,2.50
2019-01-02T00:39:54.082Z,2.50
2019-01-02T00:42:23.433Z,2.40
2019-01-02T00:44:52.919Z,2.30
2019-01-02T00:47:22.753Z,2.20
2019-01-02T00:49:52.116Z,2.20
2019-01-02T00:52:21.763Z,2.20
2019-01-02T00:54:51.153Z,2.10
2019-01-02T00:57:21.091Z,2.10
2019-01-02T00:59:50.492Z,2.10
2019-01-02T01:02:20.117Z,2.20
2019-01-02T01:04:49.609Z,2.20
2019-01-02T01:07:19.419Z,2.10
2019-01-02T01:09:48.928Z,2.20
2019-01-02T01:12:18.701Z,2.20
2019-01-02T01:14:48.166Z,2.20
2019-01-02T01:17:18.180Z,2.20
2019-01-02T01:19:47.711Z,2.20
2019-01-02T01:22:17.608Z,2.20
2019-01-02T01:24:47.044Z,2.20
2019-01-02T01:27:16.881Z,2.20
2019-01-02T01:29:46.378Z,2.20
2019-01-02T01:32:15.905Z,2.20
2019-01-02T01:34:45.484Z,2.20
2019-01-02T01:37:15.124Z,2.20
2019-01-02T01:39:44.650Z,2.10
2019-01-02T01:42:14.643Z,2.20
2019-01-02T01:44:44.068Z,2.10
2019-01-02T01:47:13.683Z,2.00
2019-01-02T01:49:43.184Z,2.00
2019-01-02T01:52:12.680Z,2.00
2019-01-02T01:54:42.224Z,2.00
2019-01-02T01:57:11.474Z,2.10
2019-01-02T01:59:40.769Z,2.00
2019-01-02T02:02:10.377Z,2.00
2019-01-02T02:04:39.577Z,2.00
2019-01-02T02:07:09.489Z,2.00
2019-01-02T02:09:38.799Z,1.90
2019-01-02T02:12:08.397Z,1.90
2019-01-02T02:14:38.232Z,2.00
2019-01-02T02:17:07.719Z,2.00
2019-01-02T02:19:37.047Z,2.00
2019-01-02T02:22:06.319Z,2.00
2019-01-02T02:24:35.717Z,1.90
2019-01-02T02:27:05.404Z,1.90
2019-01-02T02:29:35.097Z,1.70
2019-01-02T02:32:04.431Z,1.80
2019-01-02T02:34:34.138Z,1.70
2019-01-02T02:37:03.752Z,1.70
2019-01-02T02:39:33.036Z,1.70
2019-01-02T02:42:02.648Z,1.60
2019-01-02T02:44:32.282Z,1.60
2019-01-02T02:47:02.135Z,1.60
2019-01-02T02:49:31.498Z,1.50
2019-01-02T02:52:00.782Z,1.50
2019-01-02T02:54:30.038Z,1.50
2019-01-02T02:56:59.249Z,1.60
2019-01-02T02:59:28.800Z,1.50
2019-01-02T03:01:58.498Z,1.60
2019-01-02T03:04:28.058Z,1.60
2019-01-02T03:06:57.745Z,1.60
2019-01-02T03:09:27.314Z,1.60
2019-01-02T03:11:56.784Z,1.60
2019-01-02T03:14:26.182Z,1.60
2019-01-02T03:16:56.241Z,1.60
2019-01-02T03:19:26.039Z,1.70
2019-01-02T03:21:55.885Z,1.60
2019-01-02T03:24:25.450Z,1.40
2019-01-02T03:26:54.967Z,1.40
2019-01-02T03:29:24.081Z,1.40
2019-01-02T03:31:53.744Z,1.30
2019-01-02T03:34:23.538Z,1.30
2019-01-02T03:36:53.259Z,1.20
2019-01-02T03:39:22.816Z,1.20
2019-01-02T03:41:52.156Z,1.10
2019-01-02T03:44:21.541Z,1.10
2019-01-02T03:46:50.887Z,1.20
2019-01-02T03:49:20.191Z,1.20
2019-01-02T03:51:49.572Z,1.10
2019-01-02T03:54:19.027Z,1.10
2019-01-02T03:56:48.507Z,1.00
2019-01-02T03:59:17.844Z,1.00
2019-01-02T04:01:47.480Z,1.00
2019-01-02T04:04:17.560Z,1.00
2019-01-02T04:06:47.240Z,1.00
2019-01-02T04:09:18.509Z,0.90
2019-01-02T04:11:57.231Z,0.90
2019-01-02T04:14:27.659Z,0.90
2019-01-02T04:16:57.232Z,0.90
2019-01-02T04:19:27.087Z,0.90
2019-01-02T04:21:58.815Z,0.90
2019-01-02T04:24:31.629Z,0.80
2019-01-02T04:27:01.329Z,0.80
2019-01-02T04:29:31.068Z,0.80
2019-01-02T04:32:00.930Z,0.80
2019-01-02T04:34:37.773Z,0.90
2019-01-02T04:37:33.140Z,0.80
2019-01-02T04:40:03.180Z,0.80
2019-01-02T04:42:34.690Z,0.80
2019-01-02T04:45:06.914Z,0.80
2019-01-02T04:47:36.458Z,0.70
2019-01-02T04:50:07.758Z,0.70
2019-01-02T04:52:37.473Z,0.70
2019-01-02T04:55:07.465Z,0.70
2019-01-02T04:57:37.402Z,0.70
2019-01-02T05:00:10.533Z,0.70
2019-01-02T05:02:40.556Z,0.60
2019-01-02T05:05:10.810Z,0.60
2019-01-02T05:07:40.747Z,0.60
2019-01-02T05:10:11.989Z,0.60
2019-01-02T05:12:41.446Z,0.60
2019-01-02T05:15:11.563Z,0.50
2019-01-02T05:17:41.224Z,0.60
2019-01-02T05:20:13.354Z,0.60
2019-01-02T05:22:46.191Z,0.60
2019-01-02T05:25:16.218Z,0.60
2019-01-02T05:27:48.889Z,0.70
2019-01-02T05:30:27.776Z,0.70
2019-01-02T05:33:03.279Z,0.70
2019-01-02T05:35:33.257Z,0.70
2019-01-02T05:38:02.409Z,0.60
2019-01-02T05:40:32.124Z,0.60
2019-01-02T05:43:01.763Z,0.60
2019-01-02T05:45:31.176Z,0.60
2019-01-02T05:48:03.164Z,0.60
2019-01-02T05:50:32.951Z,0.60
2019-01-02T05:53:02.455Z,0.60
2019-01-02T05:55:32.245Z,0.60
2019-01-02T05:58:02.004Z,0.60
2019-01-02T06:00:31.601Z,0.60
2019-01-02T06:03:01.067Z,0.60
2019-01-02T06:05:30.702Z,0.70
2019-01-02T06:08:00.506Z,0.60
2019-01-02T06:10:30.117Z,0.60
2019-01-02T06:12:59.756Z,0.60
2019-01-02T06:15:29.260Z,0.60
2019-01-02T06:17:58.811Z,0.50
2019-01-02T06:20:28.606Z,0.60
2019-01-02T06:22:58.087Z,0.50
2019-01-02T06:25:27.931Z,0.50
2019-01-02T06:27:57.757Z,0.50
2019-01-02T06:30:27.673Z,0.50
2019-01-02T06:32:57.691Z,0.50
2019-01-02T06:35:27.754Z,0.50
2019-01-02T06:37:57.520Z,0.50
2019-01-02T06:40:27.576Z,0.50
2019-01-02T06:42:57.295Z,0.50
2019-01-02T06:45:27.266Z,0.50
2019-01-02T06:47:58.816Z,0.50
2019-01-02T06:50:32.110Z,0.50
2019-01-02T06:53:05.369Z,0.50
2019-01-02T06:55:42.896Z,0.50
2019-01-02T06:58:12.820Z,0.50
2019-01-02T07:00:44.262Z,0.50
2019-01-02T07:03:24.209Z,0.50
2019-01-02T07:05:54.510Z,0.50
2019-01-02T07:08:24.964Z,0.40
2019-01-02T07:10:55.155Z,0.50
2019-01-02T07:13:28.124Z,0.50
2019-01-02T07:16:01.314Z,0.60
2019-01-02T07:18:31.517Z,0.50
2019-01-02T07:21:01.644Z,0.50
2019-01-02T07:23:31.659Z,0.50
2019-01-02T07:26:04.580Z,0.50
2019-01-02T07:28:35.004Z,0.50
2019-01-02T07:31:04.909Z,0.50
2019-01-02T07:33:42.583Z,0.50
2019-01-02T07:36:35.906Z,0.50
2019-01-02T07:39:48.492Z,0.40
2019-01-02T07:42:58.209Z,0.50
2019-01-02T07:46:03.164Z,0.40
2019-01-02T07:48:55.649Z,0.40
2019-01-02T07:52:05.767Z,0.40
2019-01-02T07:55:15.043Z,0.50
2019-01-02T07:58:19.677Z,0.40
2019-01-02T08:01:34.308Z,0.40
2019-01-02T08:04:46.734Z,0.40
2019-01-02T08:08:06.745Z,0.40
2019-01-02T08:11:10.750Z,0.40
2019-01-02T08:14:17.014Z,0.40
2019-01-02T08:17:07.619Z,0.40
2019-01-02T08:20:15.576Z,0.50
2019-01-02T08:23:13.000Z,0.40
2019-01-02T08:26:36.437Z,0.40
2019-01-02T08:29:39.109Z,0.40
2019-01-02T08:32:45.813Z,0.50
2019-01-02T08:35:53.205Z,0.50
2019-01-02T08:39:02.647Z,0.50
2019-01-02T08:41:58.953Z,0.50
2019-01-02T08:45:16.512Z,0.50
2019-01-02T08:47:55.403Z,0.50
2019-01-02T08:50:55.663Z,0.40
2019-01-02T08:53:41.040Z,0.40
2019-01-02T08:56:43.667Z,0.30
2019-01-02T08:59:46.967Z,0.30
2019-01-02T09:02:50.905Z,0.30
2019-01-02T09:06:07.646Z,0.30
2019-01-02T09:09:10.155Z,0.40
2019-01-02T09:11:59.366Z,0.40
2019-01-02T09:15:10.574Z,0.40
2019-01-02T09:18:26.951Z,0.50
2019-01-02T09:21:42.461Z,0.50
2019-01-02T09:24:50.715Z,0.50
2019-01-02T09:27:55.916Z,0.60
2019-01-02T09:31:09.284Z,0.70
2019-01-02T09:34:15.658Z,0.70
2019-01-02T09:37:22.274Z,0.70
2019-01-02T09:40:25.595Z,0.90
2019-01-02T09:43:28.830Z,0.90
2019-01-02T09:46:35.639Z,1.00
2019-01-02T09:49:55.452Z,0.90
2019-01-02T09:53:15.646Z,0.50
2019-01-02T09:56:07.884Z,0.40
2019-01-02T10:06:20.279Z,0.50
2019-01-02T10:09:32.857Z,0.40
2019-01-02T10:12:43.972Z,0.50
2019-01-02T10:16:01.159Z,0.50
2019-01-02T10:19:01.897Z,0.60
2019-01-02T10:22:17.452Z,0.70
2019-01-02T10:25:21.087Z,0.70
2019-01-02T10:28:20.086Z,0.70
2019-01-02T10:31:21.411Z,0.80
2019-01-02T10:34:27.292Z,0.70
2019-01-02T10:37:37.348Z,0.80
2019-01-02T10:40:58.668Z,0.80
2019-01-02T10:44:00.715Z,0.90
2019-01-02T10:47:17.606Z,0.90
2019-01-02T10:50:14.397Z,1.00
2019-01-02T10:53:34.898Z,1.00
2019-01-02T10:56:42.192Z,1.10
2019-01-02T10:59:48.024Z,1.10
2019-01-02T11:02:43.869Z,1.20
2019-01-02T11:06:12.737Z,1.20
2019-01-02T11:09:21.353Z,1.30
2019-01-02T11:12:08.548Z,1.30
2019-01-02T11:15:37.304Z,1.50
2019-01-02T11:18:35.740Z,1.50
2019-01-02T11:21:54.991Z,1.50
2019-01-02T11:24:59.224Z,1.60
2019-01-02T11:28:02.955Z,1.60
2019-01-02T11:31:18.773Z,1.60
2019-01-02T11:34:24.908Z,1.50
2019-01-02T11:37:46.128Z,1.50
2019-01-02T11:41:00.307Z,1.70
2019-01-02T11:44:07.086Z,1.70
2019-01-02T11:46:40.075Z,1.60
2019-01-02T11:49:12.996Z,1.70
2019-01-02T11:51:46.455Z,1.80
2019-01-02T11:54:22.402Z,1.90
2019-01-02T11:56:56.906Z,1.90
2019-01-02T11:59:29.485Z,1.90
2019-01-02T12:02:01.140Z,1.90
2019-01-02T12:04:34.257Z,1.90
2019-01-02T12:07:07.418Z,2.00
2019-01-02T12:09:40.165Z,1.70
2019-01-02T12:12:13.465Z,1.90
2019-01-02T12:14:49.480Z,1.90
2019-01-02T12:17:22.511Z,1.90
2019-01-02T12:19:52.686Z,2.00
2019-01-02T12:22:32.304Z,1.90
2019-01-02T12:25:11.837Z,2.00
2019-01-02T12:27:44.758Z,2.00
2019-01-02T12:30:15.875Z,1.80
2019-01-02T12:32:48.754Z,1.70
2019-01-02T12:35:24.916Z,1.70
2019-01-02T12:37:55.138Z,1.80
2019-01-02T12:40:31.655Z,1.90
2019-01-02T12:43:04.871Z,1.80
2019-01-02T12:45:34.936Z,1.60
2019-01-02T12:48:07.843Z,1.60
2019-01-02T12:51:02.527Z,1.70
2019-01-02T12:53:35.456Z,1.60
2019-01-02T12:56:05.604Z,1.50
2019-01-02T12:58:38.284Z,1.50
2019-01-02T13:01:09.205Z,1.50
2019-01-02T13:04:32.350Z,1.60
2019-01-02T13:07:44.420Z,1.60
2019-01-02T13:10:27.440Z,1.50
2019-01-02T13:13:44.288Z,1.40
2019-01-02T13:16:50.796Z,1.40
2019-01-02T13:19:44.555Z,1.50
2019-01-02T13:22:52.063Z,1.60
2019-01-02T13:25:31.196Z,1.50
2019-01-02T13:28:37.289Z,1.40
2019-01-02T13:31:52.949Z,1.40
2019-01-02T13:34:50.614Z,1.40
2019-01-02T13:37:48.656Z,1.40
2019-01-02T13:41:04.302Z,1.40
2019-01-02T13:44:35.731Z,1.20
2019-01-02T13:47:56.465Z,1.20
2019-01-02T13:51:10.412Z,1.30
2019-01-02T13:53:40.532Z,1.30
2019-01-02T13:56:20.110Z,1.20
2019-01-02T13:58:50.152Z,1.10
2019-01-02T14:01:22.601Z,1.10
2019-01-02T14:03:56.164Z,0.90
2019-01-02T14:06:26.227Z,1.00
2019-01-02T14:08:59.001Z,0.90
2019-01-02T14:11:31.104Z,0.70
2019-01-02T14:14:01.173Z,0.60
2019-01-02T14:16:31.780Z,0.70
2019-01-02T14:19:04.766Z,0.60
2019-01-02T14:21:41.646Z,0.40
2019-01-02T14:24:20.644Z,0.40
2019-01-02T14:26:50.545Z,0.40
2019-01-02T14:29:38.731Z,0.40
2019-01-02T14:32:09.156Z,0.30
2019-01-02T14:34:41.808Z,0.30
2019-01-02T14:37:14.998Z,0.30
2019-01-02T14:39:50.747Z,0.40
2019-01-02T14:42:39.945Z,0.40
2019-01-02T14:45:13.110Z,0.40
2019-01-02T14:47:49.598Z,0.50
2019-01-02T14:50:22.588Z,0.50
2019-01-02T14:53:13.602Z,0.60
2019-01-02T14:55:44.335Z,0.20
2019-01-02T14:58:16.973Z,-0.20
2019-01-02T15:00:53.044Z,-0.30
2019-01-02T15:03:23.948Z,-0.40
2019-01-02T15:06:51.267Z,-0.40
2019-01-02T15:09:25.468Z,-0.40
2019-01-02T15:11:55.452Z,-0.40
2019-01-02T15:14:25.663Z,-0.40
2019-01-02T15:16:58.814Z,-0.30
2019-01-02T15:19:47.981Z,-0.30
2019-01-02T15:22:17.935Z,-0.30
2019-01-02T15:24:49.566Z,-0.20
2019-01-02T15:27:19.813Z,-0.20
2019-01-02T15:29:52.390Z,-0.20
2019-01-02T15:32:25.926Z,-0.10
2019-01-02T15:34:58.818Z,-0.10
2019-01-02T15:37:30.592Z,-0.20
2019-01-02T15:40:01.018Z,-0.10
2019-01-02T15:42:39.961Z,-0.10
2019-01-02T15:45:10.902Z,-0.10
2019-01-02T15:47:40.876Z,-0.10
2019-01-02T15:50:11.860Z,-0.10
2019-01-02T15:52:41.857Z,0.00
2019-01-02T15:55:11.947Z,0.00
2019-01-02T15:57:44.331Z,0.00
2019-01-02T16:00:14.880Z,0.10
2019-01-02T16:02:44.421Z,0.10
2019-01-02T16:05:13.990Z,0.20
2019-01-02T16:07:43.496Z,0.20
2019-01-02T16:10:12.489Z,0.20
2019-01-02T16:12:46.110Z,0.20
2019-01-02T16:15:13.235Z,0.30
2019-01-02T16:17:43.015Z,0.60
2019-01-02T16:20:12.962Z,1.00
2019-01-02T16:22:45.851Z,1.00
2019-01-02T16:25:15.170Z,0.90
2019-01-02T16:27:47.832Z,0.70
2019-01-02T16:30:17.746Z,0.60
2019-01-02T16:32:47.392Z,0.60
2019-01-02T16:35:17.166Z,0.50
2019-01-02T16:37:46.772Z,0.50
2019-01-02T16:40:16.687Z,0.30
2019-01-02T16:42:46.138Z,0.30
2019-01-02T16:45:15.492Z,0.10
2019-01-02T16:47:45.410Z,0.10
2019-01-02T16:50:15.321Z,0.00
2019-01-02T16:52:44.793Z,-0.20
2019-01-02T16:55:17.472Z,-0.20
2019-01-02T16:57:50.079Z,-0.20
2019-01-02T17:00:19.947Z,-0.20
2019-01-02T17:02:50.018Z,-0.40
2019-01-02T17:05:19.627Z,-0.30
2019-01-02T17:07:49.876Z,-0.30
2019-01-02T17:10:20.376Z,-0.40
2019-01-02T17:12:56.330Z,-0.50
2019-01-02T17:15:26.320Z,-0.50
2019-01-02T17:17:56.424Z,-0.60
2019-01-02T17:20:26.299Z,-0.60
2019-01-02T17:22:56.064Z,-0.60
2019-01-02T17:25:26.065Z,-0.50
2019-01-02T17:27:56.952Z,-0.50
2019-01-02T17:30:26.469Z,-0.50
2019-01-02T17:32:56.740Z,-0.60
2019-01-02T17:35:26.689Z,-0.50
2019-01-02T17:37:56.519Z,-0.60
2019-01-02T17:40:26.410Z,-0.60
2019-01-02T17:42:56.331Z,-0.50
2019-01-02T17:45:26.144Z,-0.50
2019-01-02T17:47:56.414Z,-0.50
2019-01-02T17:50:27.439Z,-0.40
2019-01-02T17:52:57.774Z,-0.50
2019-01-02T17:55:29.076Z,-0.50
2019-01-02T17:57:59.198Z,-0.50
2019-01-02T18:00:32.305Z,-0.40
2019-01-02T18:03:01.661Z,-0.50
2019-01-02T18:05:31.297Z,-0.50
2019-01-02T18:08:06.535Z,-0.50
2019-01-02T18:10:37.684Z,-0.50
2019-01-02T18:13:22.954Z,-0.60
2019-01-02T18:15:52.870Z,-0.60
2019-01-02T18:18:22.540Z,-0.60
2019-01-02T18:20:59.716Z,-0.60
2019-01-02T18:23:32.095Z,-0.60
2019-01-02T18:26:02.054Z,-0.60
2019-01-02T18:28:35.327Z,-0.70
2019-01-02T18:31:05.094Z,-0.70
2019-01-02T18:33:35.073Z,-0.70
2019-01-02T18:36:04.823Z,-0.60
2019-01-02T18:38:37.808Z,-0.70
2019-01-02T18:41:15.159Z,-0.70
2019-01-02T18:43:45.158Z,-0.70
2019-01-02T18:46:14.929Z,-0.70
2019-01-02T18:48:44.799Z,-0.70
2019-01-02T18:51:17.070Z,-0.70
2019-01-02T18:53:46.651Z,-0.70
2019-01-02T18:56:16.187Z,-0.70
2019-01-02T18:58:45.787Z,-0.70
2019-01-02T19:01:15.315Z,-0.70
2019-01-02T19:03:44.781Z,-0.70
2019-01-02T19:06:14.377Z,-0.70
2019-01-02T19:08:43.989Z,-0.70
2019-01-02T19:11:16.492Z,-0.70
2019-01-02T19:13:46.202Z,-0.70
2019-01-02T19:16:21.317Z,-0.60
2019-01-02T19:18:47.227Z,-0.70
2019-01-02T19:21:17.147Z,-0.70
2019-01-02T19:23:46.625Z,-0.70
2019-01-02T19:26:15.900Z,-0.70
2019-01-02T19:28:45.588Z,-0.70
2019-01-02T19:31:15.605Z,-0.60
2019-01-02T19:33:45.363Z,-0.70
2019-01-02T19:36:15.175Z,-0.60
2019-01-02T19:38:45.208Z,-0.60
2019-01-02T19:41:15.133Z,-0.80
2019-01-02T19:43:44.909Z,-0.90
2019-01-02T19:46:14.990Z,-0.90
2019-01-02T19:48:44.841Z,-0.90
2019-01-02T19:51:21.886Z,-0.90
2019-01-02T19:53:51.541Z,-0.90
2019-01-02T19:56:21.243Z,-1.00
2019-01-02T19:58:51.119Z,-1.00
2019-01-02T20:01:21.106Z,-1.00
2019-01-02T20:03:50.938Z,-1.00
2019-01-02T20:06:20.903Z,-1.00
2019-01-02T20:08:52.101Z,-1.00
2019-01-02T20:11:22.275Z,-1.00
2019-01-02T20:13:52.019Z,-1.00
2019-01-02T20:16:21.646Z,-1.10
2019-01-02T20:18:51.521Z,-1.00
2019-01-02T20:21:21.264Z,-1.10
2019-01-02T20:23:51.242Z,-1.10
2019-01-02T20:26:21.038Z,-1.10
2019-01-02T20:28:51.015Z,-1.10
2019-01-02T20:31:20.809Z,-1.20
2019-01-02T20:33:50.741Z,-1.20
2019-01-02T20:36:20.452Z,-1.20
2019-01-02T20:38:50.674Z,-1.20
2019-01-02T20:41:20.280Z,-1.20
2019-01-02T20:43:50.240Z,-1.20
2019-01-02T20:46:19.795Z,-1.20
2019-01-02T20:48:49.824Z,-1.20
2019-01-02T20:51:20.994Z,-1.30
2019-01-02T20:53:50.857Z,-1.30
2019-01-02T20:56:20.660Z,-1.30
2019-01-02T20:58:53.286Z,-1.30
2019-01-02T21:01:23.161Z,-1.30
2019-01-02T21:03:52.629Z,-1.30
2019-01-02T21:06:22.336Z,-1.40
2019-01-02T21:08:52.315Z,-1.40
2019-01-02T21:11:22.061Z,-1.40
2019-01-02T21:13:51.466Z,-1.40
2019-01-02T21:16:21.217Z,-1.40
2019-01-02T21:18:50.938Z,-1.40
2019-01-02T21:21:23.831Z,-1.40
2019-01-02T21:23:53.453Z,-1.40
2019-01-02T21:26:25.829Z,-1.40
2019-01-02T21:28:58.984Z,-1.50
2019-01-02T21:31:30.289Z,-1.50
2019-01-02T21:34:00.133Z,-1.50
2019-01-02T21:36:30.136Z,-1.60
2019-01-02T21:38:59.613Z,-1.70
2019-01-02T21:41:38.609Z,-1.70
2019-01-02T21:44:11.250Z,-1.70
2019-01-02T21:46:48.689Z,-1.60
2019-01-02T21:49:18.391Z,-1.70
2019-01-02T21:51:48.013Z,-1.70
2019-01-02T21:54:19.274Z,-1.60
2019-01-02T21:56:56.225Z,-1.60
2019-01-02T21:59:25.801Z,-1.70
2019-01-02T22:01:55.440Z,-1.70
2019-01-02T22:04:24.972Z,-1.70
2019-01-02T22:06:54.389Z,-1.70
2019-01-02T22:09:23.950Z,-1.80
2019-01-02T22:11:53.460Z,-1.90
2019-01-02T22:14:22.723Z,-1.80
2019-01-02T22:16:52.340Z,-1.80
2019-01-02T22:19:22.134Z,-1.70
2019-01-02T22:21:51.927Z,-1.80
2019-01-02T22:24:21.599Z,-1.70
2019-01-02T22:26:51.234Z,-1.70
2019-01-02T22:29:20.756Z,-1.70
2019-01-02T22:31:50.359Z,-1.70
2019-01-02T22:34:22.170Z,-1.70
2019-01-02T22:36:51.820Z,-1.70
2019-01-02T22:39:21.699Z,-1.70
2019-01-02T22:41:51.925Z,-1.60
2019-01-02T22:44:21.776Z,-1.70
2019-01-02T22:46:51.048Z,-1.70
2019-01-02T22:49:27.669Z,-1.60
2019-01-02T22:51:56.845Z,-1.60
2019-01-02T22:54:25.979Z,-1.60
2019-01-02T22:56:55.173Z,-1.60
2019-01-02T22:59:24.318Z,-1.60
2019-01-02T23:02:15.539Z,-1.60
2019-01-02T23:05:02.637Z,-1.60
2019-01-02T23:07:57.120Z,-1.60
2019-01-02T23:10:39.622Z,-1.50
2019-01-02T23:13:26.798Z,-1.50
2019-01-02T23:16:20.825Z,-1.50
2019-01-02T23:19:12.125Z,-1.50
2019-01-02T23:22:12.473Z,-1.50
2019-01-02T23:24:56.816Z,-1.50
2019-01-02T23:27:43.842Z,-1.50
2019-01-02T23:30:31.054Z,-1.50
2019-01-02T23:33:17.992Z,-1.50
2019-01-02T23:36:04.984Z,-1.50
2019-01-02T23:38:51.741Z,-1.50
2019-01-02T23:41:38.402Z,-1.50
2019-01-02T23:44:25.030Z,-1.50
2019-01-02T23:47:16.432Z,-1.50
2019-01-02T23:50:23.429Z,-1.50
2019-01-02T23:53:11.960Z,-1.50
2019-01-02T23:56:11.989Z,-1.50
2019-01-02T23:59:00.357Z,-1.50
